createdAt,value
2023-04-07T06:20:38.233Z,13.18
2023-04-07T06:30:38.368Z,13.08
2023-04-07T06:40:38.219Z,17.17
2023-04-07T06:50:38.288Z,14.59
2023-04-07T07:00:38.373Z,14.51
2023-04-07T07:10:38.314Z,12.36
2023-04-07T07:20:38.278Z,16.13
2023-04-07T07:30:38.339Z,18.20
2023-04-07T07:40:38.174Z,15.33
2023-04-07T07:50:38.266Z,18.62
2023-04-07T08:00:38.328Z,18.29
2023-04-07T08:10:38.313Z,19.92
2023-04-07T08:20:38.257Z,21.31
2023-04-07T08:30:38.328Z,21.13
2023-04-07T08:40:38.304Z,19.14
2023-04-07T08:50:38.350Z,16.86
2023-04-07T09:00:38.311Z,22.50
2023-04-07T09:10:38.185Z,30.86
2023-04-07T09:20:38.439Z,27.01
2023-04-07T09:30:38.193Z,34.53
2023-04-07T09:40:38.256Z,28.33
2023-04-07T09:50:38.330Z,34.83
2023-04-07T10:00:38.237Z,32.74
2023-04-07T10:10:38.502Z,32.31
2023-04-07T10:20:38.434Z,31.50
2023-04-07T10:30:38.639Z,29.61
2023-04-07T10:40:38.684Z,16.12
2023-04-07T10:50:38.535Z,15.94
2023-04-07T11:00:38.810Z,34.01
2023-04-07T11:10:38.593Z,30.63
2023-04-07T11:20:38.725Z,29.61
2023-04-07T11:30:38.587Z,31.23
2023-04-07T11:40:38.596Z,32.46
2023-04-07T11:50:38.661Z,29.34
2023-04-07T12:00:38.811Z,29.04
2023-04-07T12:10:38.861Z,26.75
2023-04-07T12:20:39.040Z,22.12
2023-04-07T12:30:38.679Z,28.16
2023-04-07T12:40:39.675Z,19.92
2023-04-07T12:50:39.710Z,23.61
2023-04-07T13:00:38.882Z,19.43
2023-04-07T13:10:38.838Z,18.26
2023-04-07T13:20:38.734Z,18.81
2023-04-07T13:30:38.918Z,20.17
2023-04-07T13:40:38.759Z,21.59
2023-04-07T13:50:38.900Z,21.15
2023-04-07T14:00:38.978Z,16.77
2023-04-07T14:10:39.032Z,2.47
2023-04-07T14:20:38.759Z,0.00
2023-04-07T14:30:38.866Z,0.00
2023-04-07T14:40:38.925Z,0.00
2023-04-07T14:50:38.915Z,0.00
2023-04-07T15:00:38.989Z,0.00
2023-04-07T15:10:38.766Z,0.00
2023-04-07T15:20:38.999Z,0.00
2023-04-07T15:30:39.055Z,10.17
2023-04-07T15:40:39.133Z,20.87
2023-04-07T15:50:38.964Z,17.32
2023-04-07T16:00:38.973Z,16.47
2023-04-07T16:10:39.112Z,22.47
2023-04-07T16:20:39.036Z,21.82
2023-04-07T16:30:39.062Z,21.25
2023-04-07T16:40:39.008Z,19.29
2023-04-07T16:50:39.175Z,20.48
2023-04-07T17:00:38.964Z,25.24
2023-04-07T17:10:39.105Z,21.51
2023-04-07T17:20:39.072Z,22.98
2023-04-07T17:30:39.062Z,24.82
2023-04-07T17:40:39.112Z,25.03
2023-04-07T17:50:39.075Z,22.45
2023-04-07T18:00:39.247Z,17.53
2023-04-07T18:10:39.014Z,13.49
2023-04-07T18:20:39.149Z,10.07
2023-04-07T18:30:39.328Z,9.37
2023-04-07T18:40:39.563Z,11.30
2023-04-07T18:50:39.875Z,16.03
2023-04-07T19:00:39.652Z,13.37
2023-04-07T19:10:39.783Z,13.49
2023-04-07T19:20:40.057Z,14.28
